createdAt,value
2018-12-16T00:01:04.903Z,1.80
2018-12-16T00:03:11.190Z,1.80
2018-12-16T00:05:16.685Z,1.70
2018-12-16T00:07:23.486Z,1.80
2018-12-16T00:09:34.882Z,1.90
2018-12-16T00:11:41.686Z,1.90
2018-12-16T00:13:48.951Z,1.70
2018-12-16T00:15:54.885Z,1.70
2018-12-16T00:18:01.283Z,1.70
2018-12-16T00:20:05.870Z,1.80
2018-12-16T00:22:15.271Z,1.60
2018-12-16T00:24:22.285Z,1.60
2018-12-16T00:26:38.503Z,1.90
2018-12-16T00:28:44.487Z,2.00
2018-12-16T00:30:49.846Z,2.10
2018-12-16T00:32:55.722Z,2.00
2018-12-16T00:35:02.294Z,1.80
2018-12-16T00:37:06.395Z,1.80
2018-12-16T00:39:10.582Z,1.80
2018-12-16T00:41:18.721Z,2.00
2018-12-16T00:43:22.771Z,2.00
2018-12-16T00:45:26.956Z,2.10
2018-12-16T00:47:31.702Z,2.10
2018-12-16T00:49:38.190Z,2.00
2018-12-16T00:51:43.870Z,1.90
2018-12-16T00:53:47.818Z,1.80
2018-12-16T00:55:53.514Z,1.90
2018-12-16T00:57:58.925Z,1.90
2018-12-16T01:00:03.875Z,2.00
2018-12-16T01:02:12.635Z,2.10
2018-12-16T01:04:17.815Z,2.00
2018-12-16T01:06:22.899Z,2.30
2018-12-16T01:08:26.989Z,2.30
2018-12-16T01:10:31.789Z,2.40
2018-12-16T01:12:37.810Z,2.30
2018-12-16T01:14:43.747Z,2.30
2018-12-16T01:16:47.789Z,2.20
2018-12-16T01:18:52.094Z,2.20
2018-12-16T01:20:56.166Z,2.10
2018-12-16T01:23:01.030Z,2.10
2018-12-16T01:25:05.427Z,2.10
2018-12-16T01:27:10.342Z,2.10
2018-12-16T01:29:14.326Z,2.10
2018-12-16T01:31:22.053Z,2.10
2018-12-16T01:33:26.045Z,2.10
2018-12-16T01:35:29.986Z,2.20
2018-12-16T01:37:37.051Z,2.30
2018-12-16T01:39:42.656Z,2.20
2018-12-16T01:41:47.672Z,2.40
2018-12-16T01:43:53.432Z,2.50
2018-12-16T01:45:57.639Z,2.20
2018-12-16T01:48:02.346Z,2.30
2018-12-16T01:50:07.460Z,2.40
2018-12-16T01:52:11.374Z,2.50
2018-12-16T01:54:16.011Z,2.50
2018-12-16T01:56:21.420Z,2.60
2018-12-16T01:58:25.422Z,2.60
2018-12-16T02:00:31.677Z,2.60
2018-12-16T02:02:36.729Z,2.40
2018-12-16T02:04:41.097Z,2.40
2018-12-16T02:06:45.106Z,2.20
2018-12-16T02:08:49.330Z,2.00
2018-12-16T02:10:53.883Z,2.00
2018-12-16T02:12:59.015Z,2.00
2018-12-16T02:15:13.250Z,1.90
2018-12-16T02:17:17.269Z,1.90
2018-12-16T02:19:21.373Z,1.80
2018-12-16T02:21:26.375Z,1.80
2018-12-16T02:23:30.515Z,1.90
2018-12-16T02:25:34.480Z,1.80
2018-12-16T02:27:40.446Z,1.90
2018-12-16T02:29:45.452Z,1.90
2018-12-16T02:31:49.422Z,2.00
2018-12-16T02:33:54.177Z,2.20
2018-12-16T02:35:58.963Z,2.30
2018-12-16T02:38:02.917Z,2.40
2018-12-16T02:40:06.979Z,2.60
2018-12-16T02:42:12.167Z,2.50
2018-12-16T02:44:16.264Z,2.30
2018-12-16T02:46:21.807Z,2.30
2018-12-16T02:48:25.868Z,2.30
2018-12-16T02:50:31.645Z,2.30
2018-12-16T02:52:36.236Z,2.20
2018-12-16T02:54:40.848Z,2.30
2018-12-16T02:56:45.143Z,2.20
2018-12-16T02:58:49.430Z,2.00
2018-12-16T03:00:53.371Z,1.90
2018-12-16T03:03:00.132Z,1.80
2018-12-16T03:05:04.630Z,1.80
2018-12-16T03:07:09.341Z,1.90
2018-12-16T03:09:13.812Z,2.00
2018-12-16T03:11:19.306Z,2.00
2018-12-16T03:13:23.883Z,2.00
2018-12-16T03:15:28.390Z,2.00
2018-12-16T03:17:33.279Z,2.00
2018-12-16T03:19:39.222Z,1.90
2018-12-16T03:21:44.924Z,1.80
2018-12-16T03:23:51.039Z,1.90
2018-12-16T03:25:57.503Z,2.00
2018-12-16T03:28:03.549Z,1.90
2018-12-16T03:30:13.163Z,1.90
2018-12-16T03:32:19.919Z,1.80
2018-12-16T03:34:25.223Z,1.80
2018-12-16T03:36:32.305Z,1.90
2018-12-16T03:38:36.705Z,1.80
2018-12-16T03:40:41.533Z,1.80
2018-12-16T03:42:51.623Z,1.80
2018-12-16T03:44:57.219Z,1.90
2018-12-16T03:47:01.217Z,2.00
2018-12-16T03:49:07.818Z,2.10
2018-12-16T03:51:11.797Z,2.20
2018-12-16T03:53:20.168Z,2.30
2018-12-16T03:55:23.350Z,2.20
2018-12-16T03:57:28.061Z,2.20
2018-12-16T03:59:32.739Z,2.30
2018-12-16T04:01:38.386Z,2.50
2018-12-16T04:03:43.496Z,2.60
2018-12-16T04:05:47.715Z,2.40
2018-12-16T04:07:53.791Z,2.30
2018-12-16T04:09:58.785Z,2.20
2018-12-16T04:12:03.976Z,2.40
2018-12-16T04:14:09.141Z,2.40
2018-12-16T04:16:14.964Z,2.40
2018-12-16T04:18:19.102Z,2.30
2018-12-16T04:20:23.662Z,2.20
2018-12-16T04:22:27.716Z,2.20
2018-12-16T04:24:33.990Z,2.30
2018-12-16T04:26:40.064Z,2.50
2018-12-16T04:28:44.259Z,2.40
2018-12-16T04:30:48.439Z,2.60
2018-12-16T04:32:53.342Z,2.50
2018-12-16T04:34:57.517Z,2.40
2018-12-16T04:37:01.446Z,2.30
2018-12-16T04:39:09.130Z,2.20
2018-12-16T04:41:13.187Z,2.10
2018-12-16T04:43:20.968Z,2.20
2018-12-16T04:45:25.483Z,2.40
2018-12-16T04:47:29.827Z,2.30
2018-12-16T04:49:33.994Z,2.40
2018-12-16T04:51:39.324Z,2.20
2018-12-16T04:53:44.183Z,2.30
2018-12-16T04:55:48.146Z,2.30
2018-12-16T04:57:52.776Z,2.40
2018-12-16T04:59:57.082Z,2.40
2018-12-16T05:02:01.249Z,2.40
2018-12-16T05:04:05.598Z,2.50
2018-12-16T05:06:09.973Z,2.50
2018-12-16T05:08:14.024Z,2.50
2018-12-16T05:10:31.349Z,2.60
2018-12-16T05:12:38.398Z,2.40
2018-12-16T05:14:43.798Z,2.20
2018-12-16T05:16:51.343Z,1.90
2018-12-16T05:18:56.109Z,1.80
2018-12-16T05:21:00.122Z,1.90
2018-12-16T05:23:04.455Z,2.00
2018-12-16T05:25:08.990Z,1.90
2018-12-16T05:27:13.154Z,1.80
2018-12-16T05:29:18.417Z,1.80
2018-12-16T05:31:24.026Z,1.60
2018-12-16T05:33:28.056Z,1.50
2018-12-16T05:35:38.059Z,1.40
2018-12-16T05:37:42.583Z,1.30
2018-12-16T05:39:47.057Z,1.30
2018-12-16T05:41:52.683Z,1.40
2018-12-16T05:43:58.698Z,1.40
2018-12-16T05:46:03.127Z,1.70
2018-12-16T05:48:07.563Z,1.70
2018-12-16T05:50:11.907Z,1.80
2018-12-16T05:52:15.916Z,1.80
2018-12-16T05:54:23.260Z,1.60
2018-12-16T05:56:27.837Z,1.30
2018-12-16T05:58:32.913Z,1.50
2018-12-16T06:00:38.345Z,1.60
2018-12-16T06:02:42.365Z,1.60
2018-12-16T06:04:47.204Z,1.60
2018-12-16T06:06:52.241Z,1.70
2018-12-16T06:08:57.750Z,1.70
2018-12-16T06:11:01.924Z,1.70
2018-12-16T06:13:07.142Z,1.80
2018-12-16T06:15:15.356Z,2.00
2018-12-16T06:17:23.027Z,2.00
2018-12-16T06:19:33.373Z,2.20
2018-12-16T06:21:46.764Z,2.30
2018-12-16T06:23:56.136Z,2.30
2018-12-16T06:26:05.572Z,2.40
2018-12-16T06:28:13.597Z,2.60
2018-12-16T06:30:22.990Z,2.40
2018-12-16T06:32:26.990Z,2.40
2018-12-16T06:34:31.543Z,2.50
2018-12-16T06:36:35.567Z,2.50
2018-12-16T06:38:41.060Z,2.60
2018-12-16T06:40:45.758Z,2.50
2018-12-16T06:42:50.461Z,2.50
2018-12-16T06:44:55.231Z,2.60
2018-12-16T06:46:59.837Z,2.60
2018-12-16T06:49:05.381Z,2.40
2018-12-16T06:51:10.253Z,2.60
2018-12-16T06:53:15.000Z,2.70
2018-12-16T06:55:19.203Z,2.80
2018-12-16T06:57:24.286Z,2.90
2018-12-16T06:59:29.799Z,3.00
2018-12-16T07:01:33.894Z,2.80
2018-12-16T07:03:39.226Z,2.90
2018-12-16T07:05:44.054Z,2.90
2018-12-16T07:07:50.085Z,2.70
2018-12-16T07:09:55.363Z,2.60
2018-12-16T07:12:00.253Z,2.70
2018-12-16T07:14:05.893Z,2.80
2018-12-16T07:16:11.260Z,2.80
2018-12-16T07:18:15.342Z,2.80
2018-12-16T07:20:19.418Z,2.60
2018-12-16T07:22:24.689Z,2.40
2018-12-16T07:24:28.786Z,2.20
2018-12-16T07:26:33.325Z,2.20
2018-12-16T07:28:37.676Z,2.30
2018-12-16T07:30:42.773Z,2.20
2018-12-16T07:32:48.957Z,2.40
2018-12-16T07:34:53.594Z,2.30
2018-12-16T07:37:00.132Z,2.30
2018-12-16T07:39:05.813Z,2.50
2018-12-16T07:41:11.803Z,2.60
2018-12-16T07:43:16.328Z,2.80
2018-12-16T07:45:23.395Z,2.90
2018-12-16T07:47:28.045Z,2.50
2018-12-16T07:49:33.142Z,2.30
2018-12-16T07:51:37.712Z,2.20
2018-12-16T07:53:42.265Z,2.40
2018-12-16T07:55:47.594Z,2.60
2018-12-16T07:57:55.025Z,2.50
2018-12-16T08:00:00.585Z,2.60
2018-12-16T08:02:05.356Z,2.60
2018-12-16T08:04:09.603Z,2.40
2018-12-16T08:06:15.042Z,2.30
2018-12-16T08:08:20.093Z,2.40
2018-12-16T08:10:24.489Z,2.60
2018-12-16T08:12:29.313Z,2.80
2018-12-16T08:14:34.458Z,3.00
2018-12-16T08:16:38.812Z,3.20
2018-12-16T08:18:44.462Z,3.20
2018-12-16T08:20:50.473Z,3.20
2018-12-16T08:22:55.437Z,3.10
2018-12-16T08:25:02.979Z,3.00
2018-12-16T08:27:08.703Z,2.90
2018-12-16T08:29:13.841Z,2.90
2018-12-16T08:31:20.364Z,2.90
2018-12-16T08:33:24.361Z,2.50
2018-12-16T08:35:29.211Z,2.70
2018-12-16T08:37:34.150Z,2.60
2018-12-16T08:39:39.717Z,2.90
2018-12-16T08:41:45.992Z,3.20
2018-12-16T08:43:52.035Z,3.50
2018-12-16T08:45:56.778Z,3.60
2018-12-16T08:48:00.911Z,3.60
2018-12-16T08:50:06.575Z,3.70
2018-12-16T08:52:10.826Z,4.00
2018-12-16T08:54:18.780Z,4.10
2018-12-16T08:56:23.675Z,4.20
2018-12-16T08:58:28.887Z,4.30
2018-12-16T09:00:33.652Z,4.50
2018-12-16T09:02:38.321Z,4.50
2018-12-16T09:04:43.343Z,4.70
2018-12-16T09:06:51.508Z,4.70
2018-12-16T09:08:58.446Z,4.60
2018-12-16T09:11:03.531Z,4.70
2018-12-16T09:13:10.065Z,4.60
2018-12-16T09:15:14.853Z,4.80
2018-12-16T09:17:19.650Z,4.80
2018-12-16T09:19:28.960Z,4.90
2018-12-16T09:21:34.025Z,4.80
2018-12-16T09:23:39.705Z,4.80
2018-12-16T09:25:47.344Z,4.80
2018-12-16T09:27:51.658Z,4.80
2018-12-16T09:29:56.649Z,4.80
2018-12-16T09:32:02.815Z,4.90
2018-12-16T09:34:07.561Z,5.00
2018-12-16T09:36:13.734Z,5.00
2018-12-16T09:38:19.064Z,4.90
2018-12-16T09:40:24.644Z,5.10
2018-12-16T09:42:29.114Z,5.10
2018-12-16T09:44:34.468Z,5.10
2018-12-16T09:46:39.653Z,5.00
2018-12-16T09:48:45.300Z,4.90
2018-12-16T09:50:50.434Z,5.00
2018-12-16T09:52:57.306Z,5.10
2018-12-16T09:55:02.452Z,5.10
2018-12-16T09:57:09.530Z,5.10
2018-12-16T09:59:15.847Z,5.10
2018-12-16T10:01:20.805Z,5.10
2018-12-16T10:03:26.381Z,5.10
2018-12-16T10:05:32.398Z,5.20
2018-12-16T10:07:37.313Z,5.30
2018-12-16T10:09:42.428Z,5.40
2018-12-16T10:11:47.566Z,5.50
2018-12-16T10:13:53.177Z,5.60
2018-12-16T10:15:57.447Z,5.60
2018-12-16T10:18:02.263Z,5.70
2018-12-16T10:20:10.417Z,5.70
2018-12-16T10:22:16.445Z,5.70
2018-12-16T10:24:22.370Z,5.80
2018-12-16T10:26:28.502Z,5.80
2018-12-16T10:28:32.747Z,5.80
2018-12-16T10:30:36.854Z,5.80
2018-12-16T10:32:44.338Z,5.90
2018-12-16T10:34:50.505Z,6.00
2018-12-16T10:36:56.226Z,6.00
2018-12-16T10:39:04.291Z,6.00
2018-12-16T10:41:09.730Z,6.00
2018-12-16T10:43:14.467Z,5.90
2018-12-16T10:45:19.233Z,5.80
2018-12-16T10:47:27.077Z,5.80
2018-12-16T10:49:31.894Z,5.70
2018-12-16T10:51:37.330Z,5.70
2018-12-16T10:53:42.315Z,5.60
2018-12-16T10:55:46.406Z,5.50
2018-12-16T10:57:51.589Z,5.40
2018-12-16T10:59:56.473Z,5.30
2018-12-16T11:02:00.572Z,5.20
2018-12-16T11:04:05.770Z,5.30
2018-12-16T11:06:12.660Z,5.30
2018-12-16T11:08:17.512Z,5.40
2018-12-16T11:10:22.742Z,5.50
2018-12-16T11:12:30.121Z,5.40
2018-12-16T11:14:36.569Z,5.40
2018-12-16T11:16:46.750Z,5.40
2018-12-16T11:18:52.351Z,5.40
2018-12-16T11:20:57.416Z,5.40
2018-12-16T11:23:01.600Z,5.30
2018-12-16T11:25:09.155Z,5.30
2018-12-16T11:27:14.065Z,5.20
2018-12-16T11:29:19.764Z,5.30
2018-12-16T11:31:30.733Z,5.20
2018-12-16T11:33:39.511Z,5.20
2018-12-16T11:35:53.985Z,5.20
2018-12-16T11:38:05.263Z,5.10
2018-12-16T11:43:19.811Z,5.10
2018-12-16T11:45:38.006Z,4.90
2018-12-16T11:50:18.034Z,4.90
2018-12-16T11:52:28.888Z,5.00
2018-12-16T11:54:43.831Z,5.00
2018-12-16T11:56:56.471Z,4.90
2018-12-16T11:59:12.908Z,4.80
2018-12-16T12:01:22.971Z,4.70
2018-12-16T12:03:31.892Z,4.50
2018-12-16T12:05:41.146Z,4.60
2018-12-16T12:07:52.246Z,4.70
2018-12-16T12:10:03.346Z,4.60
2018-12-16T12:12:13.955Z,4.60
2018-12-16T12:14:28.615Z,4.60
2018-12-16T12:16:47.223Z,4.60
2018-12-16T12:19:02.635Z,4.40
2018-12-16T12:21:13.959Z,4.20
2018-12-16T12:23:24.716Z,4.20
2018-12-16T12:25:32.953Z,4.10
2018-12-16T12:27:43.076Z,4.20
2018-12-16T12:29:54.368Z,4.20
2018-12-16T12:32:06.594Z,4.20
2018-12-16T12:34:13.991Z,4.30
2018-12-16T12:36:23.430Z,4.40
2018-12-16T12:38:32.703Z,4.40
2018-12-16T12:40:39.511Z,4.40
2018-12-16T12:42:49.441Z,4.30
2018-12-16T12:47:28.447Z,4.40
2018-12-16T12:49:45.181Z,4.40
2018-12-16T12:52:03.370Z,4.40
2018-12-16T12:54:10.353Z,4.40
2018-12-16T12:56:21.495Z,4.20
2018-12-16T12:58:37.601Z,4.10
2018-12-16T13:00:55.535Z,4.00
2018-12-16T13:03:07.284Z,3.90
2018-12-16T13:05:15.587Z,3.80
2018-12-16T13:09:49.888Z,3.90
2018-12-16T13:12:01.965Z,3.90
2018-12-16T13:14:09.199Z,3.90
2018-12-16T13:16:17.577Z,3.80
2018-12-16T13:18:28.560Z,3.80
2018-12-16T13:20:46.521Z,3.70
2018-12-16T13:22:58.562Z,3.80
2018-12-16T13:25:18.068Z,3.80
2018-12-16T13:27:28.048Z,3.80
2018-12-16T13:29:36.845Z,3.70
2018-12-16T13:31:52.076Z,3.80
2018-12-16T13:34:00.437Z,3.80
2018-12-16T13:36:14.494Z,3.90
2018-12-16T13:38:23.440Z,3.70
2018-12-16T13:40:36.435Z,3.60
2018-12-16T13:42:43.695Z,3.60
2018-12-16T13:44:52.119Z,3.60
2018-12-16T13:47:00.491Z,3.70
2018-12-16T13:49:11.620Z,3.60
2018-12-16T13:51:23.451Z,3.60
2018-12-16T13:53:35.570Z,3.50
2018-12-16T13:55:49.486Z,3.50
2018-12-16T13:57:59.025Z,3.50
2018-12-16T14:00:06.221Z,3.60
2018-12-16T14:02:18.353Z,3.60
2018-12-16T14:04:30.384Z,3.60
2018-12-16T14:06:42.902Z,3.70
2018-12-16T14:08:52.869Z,3.60
2018-12-16T14:11:00.722Z,3.60
2018-12-16T14:13:09.666Z,3.60
2018-12-16T14:15:25.713Z,3.50
2018-12-16T14:17:37.987Z,3.50
2018-12-16T14:19:52.821Z,3.50
2018-12-16T14:22:05.671Z,3.50
2018-12-16T14:24:21.506Z,3.40
2018-12-16T14:26:28.666Z,3.30
2018-12-16T14:28:43.253Z,3.30
2018-12-16T14:30:55.081Z,3.30
2018-12-16T14:33:08.730Z,3.30
2018-12-16T14:35:32.033Z,3.30
2018-12-16T14:37:44.933Z,3.20
2018-12-16T14:39:54.849Z,3.20
2018-12-16T14:42:06.632Z,3.10
2018-12-16T14:44:15.913Z,3.10
2018-12-16T14:46:22.317Z,3.20
2018-12-16T14:48:41.974Z,3.10
2018-12-16T14:51:07.012Z,3.10
2018-12-16T14:55:38.409Z,3.10
2018-12-16T14:57:50.142Z,3.20
2018-12-16T15:00:08.388Z,3.20
2018-12-16T15:02:16.663Z,3.20
2018-12-16T15:04:26.973Z,3.20
2018-12-16T15:06:37.373Z,3.20
2018-12-16T15:08:58.313Z,3.20
2018-12-16T15:11:08.228Z,3.30
2018-12-16T15:13:17.465Z,3.40
2018-12-16T15:15:32.476Z,3.30
2018-12-16T15:17:49.530Z,3.30
2018-12-16T15:19:59.960Z,3.30
2018-12-16T15:22:19.096Z,3.40
2018-12-16T15:24:28.246Z,3.40
2018-12-16T15:26:38.179Z,3.40
2018-12-16T15:28:51.608Z,3.40
2018-12-16T15:31:08.800Z,3.50
2018-12-16T15:33:20.304Z,3.40
2018-12-16T15:35:29.486Z,3.50
2018-12-16T15:37:48.917Z,3.50
2018-12-16T15:39:55.961Z,3.50
2018-12-16T15:42:12.938Z,3.50
2018-12-16T15:44:22.402Z,3.50
2018-12-16T15:46:42.069Z,3.60
2018-12-16T15:48:46.655Z,3.50
2018-12-16T15:50:52.614Z,3.50
2018-12-16T15:52:59.393Z,3.50
2018-12-16T15:55:05.318Z,3.40
2018-12-16T15:57:11.885Z,3.50
2018-12-16T15:59:17.026Z,3.50
2018-12-16T16:01:29.381Z,3.40
2018-12-16T16:03:45.275Z,3.40
2018-12-16T16:05:55.619Z,3.50
2018-12-16T16:08:18.570Z,3.50
2018-12-16T16:10:26.624Z,3.50
2018-12-16T16:12:41.490Z,3.50
2018-12-16T16:15:03.860Z,3.50
2018-12-16T16:17:13.685Z,3.40
2018-12-16T16:19:23.083Z,3.30
2018-12-16T16:21:32.262Z,3.40
2018-12-16T16:23:42.893Z,3.30
2018-12-16T16:25:55.890Z,3.20
2018-12-16T16:28:06.960Z,3.20
2018-12-16T16:30:22.719Z,3.30
2018-12-16T16:32:31.793Z,3.40
2018-12-16T16:34:44.738Z,3.40
2018-12-16T16:36:52.817Z,3.40
2018-12-16T16:39:05.181Z,3.40
2018-12-16T16:41:22.033Z,3.40
2018-12-16T16:43:32.537Z,3.50
2018-12-16T16:45:41.473Z,3.50
2018-12-16T16:47:51.292Z,3.50
2018-12-16T16:50:07.450Z,3.40
2018-12-16T16:52:17.262Z,3.40
2018-12-16T16:54:29.510Z,3.40
2018-12-16T16:56:37.377Z,3.40
2018-12-16T16:58:48.565Z,3.30
2018-12-16T17:01:05.443Z,3.20
2018-12-16T17:03:15.447Z,3.30
2018-12-16T17:05:31.538Z,3.30
2018-12-16T17:07:44.326Z,3.40
2018-12-16T17:09:56.328Z,3.40
2018-12-16T17:12:04.873Z,3.50
2018-12-16T17:14:16.907Z,3.50
2018-12-16T17:16:26.390Z,3.40
2018-12-16T17:18:39.491Z,3.40
2018-12-16T17:20:52.756Z,3.40
2018-12-16T17:23:03.385Z,3.30
2018-12-16T17:25:17.200Z,3.40
2018-12-16T17:27:32.756Z,3.40
2018-12-16T17:29:44.002Z,3.40
2018-12-16T17:31:54.412Z,3.50
2018-12-16T17:34:03.917Z,3.60
2018-12-16T17:36:13.718Z,3.50
2018-12-16T17:38:27.533Z,3.60
2018-12-16T17:40:47.626Z,3.70
2018-12-16T17:42:57.619Z,3.80
2018-12-16T17:47:23.033Z,3.90
2018-12-16T17:49:36.842Z,3.90
2018-12-16T17:52:04.821Z,4.00
2018-12-16T17:54:15.068Z,4.20
2018-12-16T17:56:25.761Z,4.20
2018-12-16T17:58:37.412Z,4.30
2018-12-16T18:00:51.665Z,4.40
2018-12-16T18:03:00.646Z,4.40
2018-12-16T18:05:11.659Z,4.30
2018-12-16T18:07:26.512Z,4.30
2018-12-16T18:09:37.316Z,4.30
2018-12-16T18:11:49.265Z,4.30
2018-12-16T18:13:59.440Z,4.40
2018-12-16T18:16:09.392Z,4.40
2018-12-16T18:18:20.613Z,4.40
2018-12-16T18:20:30.575Z,4.40
2018-12-16T18:22:42.854Z,4.30
2018-12-16T18:24:57.141Z,4.20
2018-12-16T18:29:40.271Z,4.30
2018-12-16T18:31:49.120Z,4.30
2018-12-16T18:33:59.317Z,4.40
2018-12-16T18:36:09.925Z,4.40
2018-12-16T18:38:23.089Z,4.40
2018-12-16T18:40:30.793Z,4.30
2018-12-16T18:42:44.968Z,4.40
2018-12-16T18:44:55.930Z,4.30
2018-12-16T18:47:10.744Z,4.40
2018-12-16T18:49:25.257Z,4.40
2018-12-16T18:51:36.639Z,4.40
2018-12-16T18:53:43.462Z,4.40
2018-12-16T18:55:53.071Z,4.40
2018-12-16T18:58:05.176Z,4.50
2018-12-16T19:00:17.383Z,4.50
2018-12-16T19:02:26.086Z,4.60
2018-12-16T19:04:36.759Z,4.70
2018-12-16T19:06:50.296Z,4.70
2018-12-16T19:09:01.298Z,4.70
2018-12-16T19:11:18.918Z,4.70
2018-12-16T19:13:28.093Z,4.80
2018-12-16T19:15:45.602Z,4.90
2018-12-16T19:18:03.525Z,5.00
2018-12-16T19:20:16.577Z,5.20
2018-12-16T19:22:24.433Z,5.30
2018-12-16T19:24:35.509Z,5.30
2018-12-16T19:26:47.015Z,5.10
2018-12-16T19:28:57.255Z,5.10
2018-12-16T19:31:09.418Z,5.10
2018-12-16T19:33:23.702Z,5.20
2018-12-16T19:35:32.402Z,5.20
2018-12-16T19:37:43.700Z,5.10
2018-12-16T19:39:53.014Z,5.00
2018-12-16T19:42:03.872Z,5.00
2018-12-16T19:44:14.483Z,5.00
2018-12-16T19:46:29.651Z,5.00
2018-12-16T19:48:45.363Z,5.00
2018-12-16T19:50:57.388Z,4.90
2018-12-16T19:53:12.363Z,4.90
2018-12-16T19:55:24.829Z,4.90
2018-12-16T19:59:49.139Z,5.00
2018-12-16T20:01:59.535Z,5.10
2018-12-16T20:04:12.693Z,5.10
2018-12-16T20:06:24.653Z,5.00
2018-12-16T20:08:33.787Z,5.10
2018-12-16T20:10:54.056Z,5.10
2018-12-16T20:13:02.801Z,5.10
2018-12-16T20:15:16.995Z,5.10
2018-12-16T20:17:26.548Z,5.10
2018-12-16T20:19:37.669Z,5.20
2018-12-16T20:21:46.585Z,5.30
2018-12-16T20:23:58.597Z,5.30
2018-12-16T20:26:11.989Z,5.20
2018-12-16T20:28:22.936Z,5.10
2018-12-16T20:30:39.632Z,5.20
2018-12-16T20:32:48.732Z,5.30
2018-12-16T20:35:01.698Z,5.30
2018-12-16T20:37:11.388Z,5.30
2018-12-16T20:39:29.175Z,5.40
2018-12-16T20:41:39.562Z,5.40
2018-12-16T20:43:48.242Z,5.50
2018-12-16T20:46:01.666Z,5.50
2018-12-16T20:48:15.449Z,5.50
2018-12-16T20:50:36.076Z,5.60
2018-12-16T20:52:47.357Z,5.60
2018-12-16T20:54:57.756Z,5.60
2018-12-16T20:57:06.489Z,5.60
2018-12-16T20:59:19.779Z,5.60
2018-12-16T21:01:49.179Z,5.70
2018-12-16T21:04:06.348Z,5.70
2018-12-16T21:06:17.942Z,5.50
2018-12-16T21:08:29.284Z,5.50
2018-12-16T21:10:49.079Z,5.50
2018-12-16T21:13:11.859Z,5.50
2018-12-16T21:15:25.500Z,5.50
2018-12-16T21:17:44.781Z,5.50
2018-12-16T21:19:55.518Z,5.40
2018-12-16T21:22:05.602Z,5.30
2018-12-16T21:26:32.139Z,5.30
2018-12-16T21:28:45.637Z,5.20
2018-12-16T21:31:06.635Z,5.20
2018-12-16T21:33:17.356Z,5.20
2018-12-16T21:35:33.950Z,5.20
2018-12-16T21:37:45.836Z,5.10
2018-12-16T21:39:58.034Z,5.10
2018-12-16T21:42:05.541Z,5.10
2018-12-16T21:44:15.401Z,5.20
2018-12-16T21:46:29.584Z,5.20
2018-12-16T21:48:42.575Z,5.20
2018-12-16T21:50:55.139Z,5.30
2018-12-16T21:53:05.007Z,5.40
2018-12-16T21:55:20.837Z,5.50
2018-12-16T21:57:33.178Z,5.50
2018-12-16T21:59:46.643Z,5.70
2018-12-16T22:01:55.275Z,5.80
2018-12-16T22:04:02.571Z,5.90
2018-12-16T22:06:13.679Z,6.00
2018-12-16T22:08:25.770Z,6.00
2018-12-16T22:10:32.898Z,6.00
2018-12-16T22:12:45.722Z,6.10
2018-12-16T22:14:54.278Z,6.10
2018-12-16T22:17:03.884Z,6.10
2018-12-16T22:19:14.748Z,6.20
2018-12-16T22:23:40.508Z,6.20
2018-12-16T22:25:49.357Z,6.20
2018-12-16T22:27:59.661Z,6.20
2018-12-16T22:30:07.062Z,6.30
2018-12-16T22:32:15.437Z,6.30
2018-12-16T22:34:21.822Z,6.20
2018-12-16T22:36:33.012Z,6.20
2018-12-16T22:38:59.456Z,6.20
2018-12-16T22:41:11.726Z,6.20
2018-12-16T22:43:25.621Z,6.10
2018-12-16T22:45:33.497Z,6.10
2018-12-16T22:47:43.837Z,6.00
2018-12-16T22:49:51.975Z,5.90
2018-12-16T22:52:02.414Z,5.90
2018-12-16T22:54:16.431Z,6.00
2018-12-16T22:56:26.825Z,5.90
2018-12-16T22:58:36.187Z,6.00
2018-12-16T23:00:50.380Z,6.10
2018-12-16T23:03:01.525Z,6.10
2018-12-16T23:05:13.508Z,6.10
2018-12-16T23:07:37.596Z,6.20
2018-12-16T23:09:50.320Z,6.30
2018-12-16T23:12:02.921Z,6.30
2018-12-16T23:14:11.335Z,6.30
2018-12-16T23:16:22.823Z,6.30
2018-12-16T23:18:32.315Z,6.40
2018-12-16T23:20:39.368Z,6.20
2018-12-16T23:22:50.835Z,6.30
2018-12-16T23:25:07.452Z,6.50
2018-12-16T23:27:15.656Z,6.60
2018-12-16T23:29:26.066Z,6.60
2018-12-16T23:31:38.105Z,6.60
2018-12-16T23:33:54.002Z,6.70
2018-12-16T23:36:02.887Z,6.70
2018-12-16T23:38:12.762Z,6.60
2018-12-16T23:40:23.736Z,6.60
2018-12-16T23:42:36.155Z,6.50
2018-12-16T23:44:48.462Z,6.50
2018-12-16T23:46:58.865Z,6.50
2018-12-16T23:49:09.452Z,6.50
2018-12-16T23:51:21.782Z,6.50
2018-12-16T23:53:33.914Z,6.50
2018-12-16T23:55:44.810Z,6.50
2018-12-16T23:58:01.028Z,6.50
